Time;durP1;ratioP1;P1;durP2;ratioP2;P2;SDS_P1;SDS_P2;PMS_P1;PMS_P2;Temp;Humidity;BMP_temperature;BMP_pressure;BME280_temperature;BME280_humidity;BME280_pressure;Samples;Min_cycle;Max_cycle;Signal;HPM_P1;HPM_P2
2023/04/03 00:00:06;;;;;;;1.88;0.70;;;;;;;13.90;40.15;99016.63;3170464;27;20083;-64
2023/04/03 00:01:39;;;;;;;1.50;0.80;;;;;;;13.88;40.45;99008.09;3170066;28;20118;-64
2023/04/03 00:03:11;;;;;;;2.63;1.00;;;;;;;13.85;40.31;99011.75;3170380;28;20058;-64
2023/04/03 00:04:42;;;;;;;1.25;0.70;;;;;;;13.56;40.52;98971.13;3169571;28;20309;-65
2023/04/03 00:06:16;;;;;;;2.50;1.17;;;;;;;13.83;40.58;99010.19;3170328;28;20418;-64
2023/04/03 00:07:47;;;;;;;6.47;0.88;;;;;;;13.82;40.64;99011.13;3170557;28;20055;-65
2023/04/03 00:09:19;;;;;;;5.32;0.70;;;;;;;13.80;40.42;99016.47;3170264;28;20136;-64
2023/04/03 00:10:51;;;;;;;5.93;0.88;;;;;;;13.73;40.69;99007.38;3170086;28;20116;-64
2023/04/03 00:12:22;;;;;;;1.55;0.80;;;;;;;13.77;40.65;99010.63;3169629;28;20056;-64
2023/04/03 00:13:54;;;;;;;2.45;1.02;;;;;;;13.74;40.73;99013.44;3169933;28;20039;-65
2023/04/03 00:15:25;;;;;;;2.33;1.08;;;;;;;13.71;40.51;99011.88;3170026;28;20486;-65
2023/04/03 00:16:57;;;;;;;3.40;0.90;;;;;;;13.68;40.50;99014.72;3170255;28;20051;-65
2023/04/03 00:18:28;;;;;;;1.88;0.80;;;;;;;13.63;40.58;99011.59;3169620;28;20382;-63
2023/04/03 00:20:00;;;;;;;1.50;1.15;;;;;;;13.62;40.38;99002.91;3165797;28;20089;-63
2023/04/03 00:21:33;;;;;;;1.63;0.82;;;;;;;13.60;40.69;99009.19;3157587;28;20052;-64
2023/04/03 00:23:04;;;;;;;3.28;1.25;;;;;;;13.56;40.72;99010.34;3169609;28;20043;-64
2023/04/03 00:24:35;;;;;;;2.30;1.15;;;;;;;13.55;40.54;99011.31;3170042;28;20058;-64
2023/04/03 00:26:07;;;;;;;2.08;1.00;;;;;;;13.49;40.50;99004.72;3169612;28;20047;-63
2023/04/03 00:27:40;;;;;;;3.50;1.15;;;;;;;13.53;40.87;99006.16;3169749;28;20505;-64
2023/04/03 00:29:12;;;;;;;3.15;0.90;;;;;;;13.50;40.58;99011.63;3170126;28;20047;-64
2023/04/03 00:30:44;;;;;;;2.55;0.93;;;;;;;13.46;40.98;99012.78;3169948;28;20047;-64
2023/04/03 00:32:15;;;;;;;2.50;1.08;;;;;;;13.41;41.09;99009.63;3169902;28;20051;-64
2023/04/03 00:33:47;;;;;;;2.53;0.73;;;;;;;13.38;41.31;99015.09;3168892;28;20048;-64
2023/04/03 00:35:21;;;;;;;2.55;1.20;;;;;;;13.37;41.11;99021.28;3169865;28;20596;-64
2023/04/03 00:36:54;;;;;;;;;;;;;;;13.30;40.96;99014.78;3166335;28;20090;-64
2023/04/03 00:38:26;;;;;;;14.43;7.50;;;;;;;13.30;41.30;99014.78;3169384;28;19931;-64
2023/04/03 00:39:57;;;;;;;8.43;2.13;;;;;;;13.32;41.36;99016.34;3170294;28;20051;-64
2023/04/03 00:41:29;;;;;;;6.30;3.30;;;;;;;13.28;41.53;99007.03;3168756;28;20040;-64
2023/04/03 00:43:00;;;;;;;3.88;2.13;;;;;;;13.35;41.20;99017.91;3169758;28;20093;-64
2023/04/03 00:45:11;;;;;;;3.28;1.50;;;;;;;13.33;41.33;99015.38;3169866;28;20537;-63
2023/04/03 00:46:43;;;;;;;2.58;1.10;;;;;;;13.32;41.32;99018.13;3164322;28;20116;-64
2023/04/03 00:48:17;;;;;;;1.02;0.70;;;;;;;13.34;41.56;99016.22;3169684;28;20044;-65
2023/04/03 00:49:51;;;;;;;2.15;1.10;;;;;;;13.34;41.81;99018.84;3169957;28;20052;-66
2023/04/03 00:51:25;;;;;;;7.63;1.08;;;;;;;13.33;41.69;99011.94;3169481;28;20050;-65
2023/04/03 00:52:59;;;;;;;3.05;1.23;;;;;;;13.29;42.04;99013.94;3169156;28;20428;-65
2023/04/03 00:54:31;;;;;;;1.92;0.75;;;;;;;13.21;41.72;99003.97;3167524;28;20047;-65
2023/04/03 00:56:08;;;;;;;2.53;0.95;;;;;;;13.19;41.85;99010.25;3168926;28;20402;-65
2023/04/03 00:57:41;;;;;;;6.18;1.08;;;;;;;13.16;41.95;99023.50;3169100;28;20098;-64
2023/04/03 00:59:16;;;;;;;3.03;0.88;;;;;;;13.15;42.11;99011.41;3169118;28;20055;-65
2023/04/03 01:00:57;;;;;;;3.28;0.70;;;;;;;13.15;42.22;99011.41;3169701;28;20052;-65
2023/04/03 01:02:28;;;;;;;3.42;1.00;;;;;;;13.12;42.23;99011.59;3169394;28;20501;-64
2023/04/03 01:04:02;;;;;;;3.40;0.88;;;;;;;13.10;42.59;99011.72;3169165;28;20050;-65
2023/04/03 01:05:33;;;;;;;1.33;0.70;;;;;;;13.07;42.51;99016.31;3157887;28;20055;-64
2023/04/03 01:07:07;;;;;;;7.90;0.98;;;;;;;13.07;42.43;99017.13;3169617;28;20134;-65
2023/04/03 01:08:41;;;;;;;3.15;0.93;;;;;;;13.05;42.93;99019.03;3169383;28;20590;-65
2023/04/03 01:10:14;;;;;;;;;;;;;;;12.94;42.74;99019.75;3157061;28;20054;-65
2023/04/03 01:11:46;;;;;;;2.13;0.88;;;;;;;12.88;42.60;99008.88;3168311;28;19959;-65
2023/04/03 01:13:24;;;;;;;2.65;0.90;;;;;;;12.90;43.06;99010.47;3168261;28;20047;-65
2023/04/03 01:14:58;;;;;;;1.02;0.57;;;;;;;12.90;43.15;99017.47;3169254;28;20047;-65
2023/04/03 01:16:31;;;;;;;3.00;0.93;;;;;;;12.87;42.77;99013.28;3169167;28;20056;-65
2023/04/03 01:18:04;;;;;;;2.50;0.85;;;;;;;12.87;42.98;99008.06;3169031;28;20138;-65
2023/04/03 01:19:45;;;;;;;3.10;0.90;;;;;;;12.87;42.92;99013.28;3167965;28;20440;-65
2023/04/03 01:21:53;;;;;;;3.78;1.00;;;;;;;12.86;43.07;99014.19;3167579;28;20044;-64
2023/04/03 01:23:55;;;;;;;1.83;0.82;;;;;;;12.81;42.96;99011.06;3155694;28;20044;-64
2023/04/03 01:25:27;;;;;;;1.15;0.52;;;;;;;12.81;43.09;99007.59;3162253;28;20597;-65
2023/04/03 01:26:59;;;;;;;8.23;3.47;;;;;;;12.80;43.53;99013.78;3169178;28;20048;-65
2023/04/03 01:28:33;;;;;;;2.97;1.40;;;;;;;12.51;43.48;98964.31;3168615;28;20116;-65
2023/04/03 01:30:07;;;;;;;6.88;2.72;;;;;;;12.81;43.73;99013.69;3168414;28;20428;-65
2023/04/03 01:31:49;;;;;;;3.67;1.85;;;;;;;12.81;43.37;99008.47;3169161;28;20048;-65
2023/04/03 01:33:20;;;;;;;2.50;1.20;;;;;;;12.82;43.50;99014.53;3168705;28;20482;-65
2023/04/03 01:34:52;;;;;;;2.65;1.00;;;;;;;12.83;43.67;99010.97;3166447;28;20051;-65
2023/04/03 01:36:27;;;;;;;2.83;0.65;;;;;;;12.84;43.34;99007.44;3158369;28;20059;-65
2023/04/03 01:37:58;;;;;;;2.08;0.80;;;;;;;12.84;43.62;98997.81;3169490;28;20101;-65
2023/04/03 01:39:30;;;;;;;6.97;1.40;;;;;;;12.83;43.48;99005.72;3168787;28;20048;-65
2023/04/03 01:41:01;;;;;;;5.30;1.02;;;;;;;12.81;43.87;99007.59;3165048;28;20047;-65
2023/04/03 01:42:33;;;;;;;3.95;0.90;;;;;;;12.81;43.71;99003.25;3168807;28;20051;-65
2023/04/03 01:44:04;;;;;;;4.30;1.23;;;;;;;12.82;43.63;99006.69;3169338;28;20054;-65
2023/04/03 01:45:36;;;;;;;2.83;0.90;;;;;;;12.80;43.83;99004.16;3168880;28;20043;-66
2023/04/03 01:47:09;;;;;;;4.63;0.93;;;;;;;12.79;43.36;99010.34;3168619;28;20055;-65
2023/04/03 01:48:41;;;;;;;1.60;0.73;;;;;;;12.51;43.65;98970.38;3168345;28;20059;-65
2023/04/03 01:50:12;;;;;;;2.53;0.85;;;;;;;12.81;43.41;99018.06;3168548;28;20065;-65
2023/04/03 01:51:44;;;;;;;3.22;0.82;;;;;;;12.80;43.74;99021.63;3126739;28;1205195;-65
2023/04/03 01:53:15;;;;;;;5.05;1.00;;;;;;;12.79;43.50;99020.78;3168950;28;20599;-64
2023/04/03 01:54:47;;;;;;;1.83;0.82;;;;;;;12.79;43.52;99023.41;3163357;28;20059;-64
2023/04/03 01:56:18;;;;;;;2.30;0.93;;;;;;;12.79;43.90;99022.56;3160528;28;20366;-64
2023/04/03 01:57:51;;;;;;;3.70;0.90;;;;;;;12.79;43.81;99025.19;3160286;28;20598;-64
2023/04/03 01:59:23;;;;;;;1.60;1.00;;;;;;;12.78;43.57;99019.13;3158844;28;20528;-64
2023/04/03 02:00:55;;;;;;;3.83;1.88;;;;;;;12.78;43.76;99029.56;3159672;28;20047;-63
2023/04/03 02:02:29;;;;;;;3.65;1.83;;;;;;;12.74;43.77;99018.47;3159758;28;20379;-64
2023/04/03 02:04:01;;;;;;;2.90;1.50;;;;;;;12.75;43.77;99029.78;3160612;28;20146;-65
2023/04/03 02:05:33;;;;;;;4.50;1.33;;;;;;;12.72;43.75;99029.97;3160337;28;20572;-65
2023/04/03 02:07:04;;;;;;;3.47;1.58;;;;;;;12.69;44.05;99030.19;3159987;28;20056;-65
2023/04/03 02:08:36;;;;;;;2.50;1.13;;;;;;;12.63;43.66;99030.56;3149425;28;20147;-64
2023/04/03 02:10:09;;;;;;;8.73;1.27;;;;;;;12.56;43.96;99029.31;3158989;28;20523;-64
2023/04/03 02:11:41;;;;;;;2.90;1.63;;;;;;;12.47;44.11;99023.75;3159280;28;20507;-65
2023/04/03 02:13:13;;;;;;;3.50;1.45;;;;;;;12.39;44.24;99017.34;3159804;28;20128;-65
2023/04/03 02:14:45;;;;;;;3.70;1.38;;;;;;;12.33;44.56;99015.13;3160567;28;20565;-65
2023/04/03 02:16:17;;;;;;;4.03;1.40;;;;;;;12.28;44.39;99020.66;3159583;28;20085;-65
2023/04/03 02:17:50;;;;;;;5.28;1.85;;;;;;;12.23;44.75;99025.34;3159119;28;20062;-65
2023/04/03 02:19:22;;;;;;;;;;;;;;;12.11;44.36;99026.97;3159058;28;20686;-64
2023/04/03 02:20:54;;;;;;;4.38;1.88;;;;;;;12.06;45.03;99024.63;3153796;28;19931;-63
2023/04/03 02:22:26;;;;;;;9.40;4.47;;;;;;;12.05;45.05;99022.97;3159076;28;20129;-63
2023/04/03 02:23:58;;;;;;;6.50;3.28;;;;;;;12.02;45.13;99023.16;3161085;28;20573;-64
2023/04/03 02:25:32;;;;;;;5.47;2.30;;;;;;;11.99;44.89;99018.13;3161758;28;20062;-65
2023/04/03 02:27:03;;;;;;;;;;;;;;;11.90;44.94;99025.72;3161467;28;20497;-65
2023/04/03 02:28:35;;;;;;;6.95;2.28;;;;;;;11.84;45.17;99022.50;3159357;28;19956;-64
2023/04/03 02:30:10;;;;;;;10.30;2.50;;;;;;;11.85;45.26;99028.59;3161518;28;20059;-64
2023/04/03 02:31:42;;;;;;;4.22;2.15;;;;;;;11.81;45.56;99027.94;3162110;27;20048;-64
2023/04/03 02:33:16;;;;;;;5.97;2.40;;;;;;;11.79;45.53;99018.53;3161581;28;20509;-64
2023/04/03 02:34:46;;;;;;;4.45;2.08;;;;;;;11.79;45.80;99026.34;3160518;28;20566;-64
2023/04/03 02:36:18;;;;;;;7.13;1.70;;;;;;;11.79;45.58;99031.56;3149102;28;20088;-64
2023/04/03 02:37:51;;;;;;;4.38;2.30;;;;;;;11.76;45.96;99027.38;3149595;28;20086;-64
2023/04/03 02:39:23;;;;;;;5.13;2.08;;;;;;;11.78;46.15;99029.91;3160863;28;20089;-65
2023/04/03 02:41:00;;;;;;;6.60;2.40;;;;;;;11.79;46.20;99028.94;3161633;28;20112;-65
2023/04/03 02:42:32;;;;;;;4.80;2.13;;;;;;;11.78;45.90;99027.28;3161217;28;20637;-64
2023/04/03 02:44:05;;;;;;;9.95;2.00;;;;;;;11.77;45.75;99018.63;3161637;28;20055;-64
2023/04/03 02:45:37;;;;;;;;;;;;;;;11.67;46.08;99020.13;3162195;28;20534;-65
2023/04/03 02:47:09;;;;;;;6.13;2.42;;;;;;;11.64;46.20;99020.31;3161295;28;20548;-65
2023/04/03 02:48:42;;;;;;;5.78;2.30;;;;;;;11.60;46.09;99018.84;3161729;28;20073;-65
2023/04/03 02:50:14;;;;;;;6.78;2.47;;;;;;;11.62;46.02;99024.78;3162273;28;20059;-65
2023/04/03 02:51:47;;;;;;;5.10;2.60;;;;;;;11.60;46.12;99024.06;3166024;28;20051;-65
2023/04/03 02:53:19;;;;;;;6.57;2.85;;;;;;;11.25;46.39;98966.25;3166001;28;20057;-65
2023/04/03 02:54:51;;;;;;;6.35;3.05;;;;;;;11.54;46.49;99027.88;3163947;28;20518;-65
2023/04/03 02:56:23;;;;;;;8.35;2.00;;;;;;;10.73;46.72;98907.72;3165808;28;20055;-65
2023/04/03 02:57:55;;;;;;;6.80;1.98;;;;;;;11.43;46.80;99027.69;3165801;28;20047;-65
2023/04/03 02:59:26;;;;;;;9.70;1.92;;;;;;;11.37;46.98;99028.06;3161869;28;20119;-65
2023/04/03 03:00:58;;;;;;;7.75;2.60;;;;;;;11.33;47.55;99027.41;3165892;28;20047;-64
2023/04/03 03:02:29;;;;;;;9.02;2.70;;;;;;;11.29;47.47;99018.09;3165515;28;20056;-64
2023/04/03 03:04:02;;;;;;;6.15;2.15;;;;;;;11.25;47.35;99027.03;3166164;28;20055;-64
2023/04/03 03:05:35;;;;;;;15.90;2.67;;;;;;;11.21;47.67;99020.34;3165806;28;20047;-64
2023/04/03 03:07:07;;;;;;;4.72;2.17;;;;;;;11.19;47.76;99018.75;3165870;28;20130;-64
2023/04/03 03:08:38;;;;;;;9.23;2.78;;;;;;;11.16;47.83;99012.78;3165870;28;20104;-64
2023/04/03 03:10:10;;;;;;;10.15;3.30;;;;;;;11.13;47.63;99006.94;3165611;28;20409;-64
2023/04/03 03:11:41;;;;;;;6.57;2.90;;;;;;;11.10;47.65;98999.28;3166267;28;20047;-63
2023/04/03 03:13:13;;;;;;;7.40;2.95;;;;;;;11.07;47.72;99000.31;3163354;28;20123;-64
2023/04/03 03:14:45;;;;;;;16.45;3.75;;;;;;;11.05;47.71;98998.72;3163171;28;20051;-63
2023/04/03 03:16:17;;;;;;;6.28;2.85;;;;;;;11.01;47.85;98995.47;3165377;28;20051;-65
2023/04/03 03:17:49;;;;;;;8.73;2.72;;;;;;;11.00;48.13;99004.19;3165911;28;20052;-64
2023/04/03 03:19:22;;;;;;;8.68;2.70;;;;;;;10.98;47.95;98997.44;3165783;28;20048;-64
2023/04/03 03:20:54;;;;;;;;;;;;;;;10.86;47.86;98999.81;3161052;27;20055;-64
2023/04/03 03:22:27;;;;;;;11.68;2.97;;;;;;;10.84;48.22;99003.44;3165126;28;19930;-64
2023/04/03 03:23:59;;;;;;;12.07;2.88;;;;;;;10.81;48.41;98998.41;3165349;28;20059;-64
2023/04/03 03:25:31;;;;;;;9.45;4.32;;;;;;;10.83;48.69;98993.97;3165735;28;20506;-64
2023/04/03 03:27:03;;;;;;;6.10;2.87;;;;;;;10.80;48.57;98991.53;3165623;28;20063;-64
2023/04/03 03:28:36;;;;;;;10.80;2.30;;;;;;;10.80;48.73;98991.53;3157179;28;20093;-64
2023/04/03 03:30:09;;;;;;;10.98;2.97;;;;;;;10.76;48.56;98988.25;3165730;28;20090;-64
2023/04/03 03:31:41;;;;;;;7.60;2.92;;;;;;;10.74;48.47;98989.28;3164947;28;20343;-64
2023/04/03 03:33:12;;;;;;;7.60;3.10;;;;;;;10.71;48.98;98985.09;3165385;28;20611;-63
2023/04/03 03:34:45;;;;;;;10.95;3.03;;;;;;;10.69;49.07;98985.19;3165044;28;20062;-63
2023/04/03 03:36:17;;;;;;;8.77;3.45;;;;;;;10.66;49.29;98984.53;3151843;28;20125;-63
2023/04/03 03:37:49;;;;;;;13.50;4.82;;;;;;;10.62;49.42;98983.88;3152971;28;20060;-64
2023/04/03 03:39:21;;;;;;;8.68;3.38;;;;;;;10.63;49.19;98989.91;3164320;28;20051;-63
2023/04/03 03:40:52;;;;;;;10.52;3.97;;;;;;;10.62;49.65;98990.84;3165422;28;20116;-64
2023/04/03 03:42:24;;;;;;;6.22;2.80;;;;;;;10.59;49.60;98988.41;3165136;28;20134;-64
2023/04/03 03:43:56;;;;;;;10.00;3.58;;;;;;;10.57;49.73;98991.09;3165587;28;20120;-64
2023/04/03 03:45:28;;;;;;;8.95;3.33;;;;;;;10.56;49.53;98999.00;3165060;28;20065;-64
2023/04/03 03:47:00;;;;;;;12.77;4.55;;;;;;;10.54;49.52;98999.09;3165320;28;20124;-64
2023/04/03 03:48:32;;;;;;;10.02;4.18;;;;;;;10.45;49.83;98991.81;3165276;28;20536;-64
2023/04/03 03:50:07;;;;;;;15.82;4.88;;;;;;;10.48;50.00;98999.44;3165374;28;20508;-64
2023/04/03 03:51:39;;;;;;;11.80;4.70;;;;;;;10.45;50.01;99004.84;3165404;28;20109;-64
2023/04/03 03:53:11;;;;;;;14.00;5.00;;;;;;;10.43;50.17;99009.28;3163577;27;20058;-64
2023/04/03 03:54:43;;;;;;;13.57;4.63;;;;;;;10.40;49.98;99010.28;3162698;28;20313;-64
2023/04/03 03:56:15;;;;;;;11.27;5.82;;;;;;;10.35;50.03;98995.84;3165044;28;20052;-64
2023/04/03 03:57:47;;;;;;;11.90;4.97;;;;;;;10.35;50.46;99008.88;3165136;28;20055;-65
2023/04/03 03:59:19;;;;;;;17.13;5.18;;;;;;;10.36;50.17;99010.56;3164998;28;20211;-64
2023/04/03 04:00:52;;;;;;;9.80;4.72;;;;;;;10.34;50.25;99009.81;3164606;28;20340;-63
2023/04/03 04:02:24;;;;;;;13.75;4.18;;;;;;;10.33;50.32;99013.34;3167150;28;20047;-64
2023/04/03 04:03:56;;;;;;;15.25;4.80;;;;;;;10.33;50.53;99014.19;3165414;28;20527;-64
2023/04/03 04:05:30;;;;;;;13.85;4.93;;;;;;;10.24;50.61;99006.88;3164868;28;20055;-64
2023/04/03 04:07:02;;;;;;;12.30;5.00;;;;;;;10.31;50.51;99021.22;3165080;28;20053;-64
2023/04/03 04:08:34;;;;;;;10.68;4.40;;;;;;;10.29;50.36;99025.66;3164527;28;20070;-63
2023/04/03 04:10:07;;;;;;;12.77;4.13;;;;;;;10.30;50.58;99022.16;3165034;28;20148;-63
2023/04/03 04:11:39;;;;;;;11.10;4.88;;;;;;;10.28;50.83;99028.38;3164791;28;20529;-63
2023/04/03 04:13:11;;;;;;;9.70;4.53;;;;;;;10.26;50.71;99018.00;3165034;28;20511;-63
2023/04/03 04:14:46;;;;;;;11.25;4.20;;;;;;;10.25;50.51;99024.16;3165171;28;20781;-65
2023/04/03 04:16:21;;;;;;;9.73;3.97;;;;;;;9.88;50.67;98960.31;3165073;28;20098;-63
2023/04/03 04:17:53;;;;;;;15.18;5.40;;;;;;;10.29;50.68;99019.63;3164933;28;20043;-63
2023/04/03 04:19:25;;;;;;;10.20;3.60;;;;;;;10.29;50.80;99023.06;3163959;28;20047;-63
2023/04/03 04:20:58;;;;;;;10.32;4.10;;;;;;;10.29;50.60;99017.84;3164690;28;20055;-68
2023/04/03 04:22:30;;;;;;;8.80;3.00;;;;;;;10.30;50.68;99035.19;3164856;28;20105;-62
2023/04/03 04:24:02;;;;;;;7.55;3.35;;;;;;;10.33;50.86;99040.19;3164034;28;20051;-64
2023/04/03 04:25:34;;;;;;;72.07;38.30;;;;;;;10.33;50.90;99047.19;3163999;28;20575;-65
2023/04/03 04:27:06;;;;;;;156.35;74.07;;;;;;;10.35;50.68;99045.31;3164531;28;20043;-61
2023/04/03 04:28:38;;;;;;;134.48;67.25;;;;;;;10.37;50.95;99038.25;3157639;28;20109;-66
2023/04/03 04:30:10;;;;;;;20.33;9.15;;;;;;;10.39;50.94;99044.22;3164408;28;20052;-62
2023/04/03 04:31:42;;;;;;;10.57;5.72;;;;;;;10.43;50.66;99046.56;3164086;28;20682;-62
2023/04/03 04:33:14;;;;;;;14.48;5.28;;;;;;;10.45;50.82;99043.88;3161590;28;20062;-64
2023/04/03 04:34:45;;;;;;;9.82;4.00;;;;;;;10.40;50.62;99025.06;3163815;28;20521;-63
2023/04/03 04:36:19;;;;;;;10.63;3.80;;;;;;;10.55;50.40;99052.84;3164065;28;20081;-62
2023/04/03 04:37:51;;;;;;;7.07;3.75;;;;;;;10.53;50.64;99040.81;3164510;28;20051;-63
2023/04/03 04:39:23;;;;;;;13.20;3.83;;;;;;;10.64;50.33;99052.31;3166693;28;20069;-63
2023/04/03 04:40:55;;;;;;;11.30;3.50;;;;;;;10.68;50.46;99051.22;3164523;28;20054;-64
2023/04/03 04:42:26;;;;;;;154.60;68.82;;;;;;;10.74;50.44;99050.03;3164271;28;20050;-63
2023/04/03 04:43:59;;;;;;;63.20;27.00;;;;;;;10.70;50.05;99030.28;3163960;28;20107;-69
2023/04/03 04:45:31;;;;;;;19.58;5.65;;;;;;;10.80;50.26;99036.66;3164366;28;20734;-67
2023/04/03 04:47:03;;;;;;;12.38;5.13;;;;;;;10.86;50.12;99038.91;3164235;28;20573;-65
2023/04/03 04:48:35;;;;;;;18.00;4.75;;;;;;;10.58;49.97;98982.34;3164212;28;20079;-65
2023/04/03 04:50:08;;;;;;;19.93;6.10;;;;;;;10.91;50.06;99041.22;3164574;28;20051;-67
2023/04/03 04:51:41;;;;;;;10.10;4.97;;;;;;;10.93;49.81;99044.56;3164033;28;20715;-69
2023/04/03 04:53:13;;;;;;;;;;;;;;;10.89;49.86;99046.53;3164076;28;20348;-66
2023/04/03 04:54:46;;;;;;;31.67;4.90;;;;;;;10.91;50.00;99052.50;3164351;28;19963;-65
2023/04/03 04:56:18;;;;;;;20.08;4.90;;;;;;;10.97;50.01;99061.69;3162928;28;20103;-67
2023/04/03 04:57:50;;;;;;;15.98;5.38;;;;;;;11.01;49.71;99067.59;3161296;28;20146;-68
2023/04/03 04:59:22;;;;;;;17.17;5.50;;;;;;;10.99;49.68;99057.25;3157433;28;20413;-69
2023/04/03 05:01:03;;;;;;;79.95;40.97;;;;;;;11.06;49.91;99066.38;3164284;28;20056;-66
2023/04/03 05:02:35;;;;;;;165.70;79.38;;;;;;;11.09;49.84;99060.13;3152586;28;20052;-67
2023/04/03 05:04:07;;;;;;;46.13;19.67;;;;;;;11.12;49.91;99065.16;3164164;28;20055;-71
2023/04/03 05:05:39;;;;;;;16.92;8.18;;;;;;;11.16;49.80;99059.69;3164428;28;20092;-66
2023/04/03 05:07:12;;;;;;;20.70;6.70;;;;;;;10.97;49.59;99022.63;3163864;28;20870;-67
2023/04/03 05:08:44;;;;;;;;;;;;;;;11.16;49.43;99067.50;3164381;28;20058;-68
2023/04/03 05:10:16;;;;;;;20.48;5.30;;;;;;;11.18;49.78;99071.78;3160122;28;20515;-67
2023/04/03 05:11:48;;;;;;;21.90;5.72;;;;;;;11.21;49.72;99069.00;3164428;28;20059;-67
2023/04/03 05:13:20;;;;;;;24.67;6.18;;;;;;;11.20;49.80;99060.34;3156589;28;20476;-68
2023/04/03 05:14:52;;;;;;;27.67;5.85;;;;;;;11.27;49.98;99053.00;3163173;28;20125;-67
2023/04/03 05:16:25;;;;;;;24.15;5.32;;;;;;;11.26;49.83;99059.13;3163867;28;20135;-67
2023/04/03 05:17:57;;;;;;;27.10;5.90;;;;;;;11.25;50.33;99065.28;3163552;28;20151;-67
2023/04/03 05:19:29;;;;;;;16.30;6.13;;;;;;;11.21;50.42;99058.56;3164426;28;20171;-70
2023/04/03 05:21:01;;;;;;;21.95;6.63;;;;;;;11.32;50.63;99072.63;3163737;28;20062;-68
2023/04/03 05:22:35;;;;;;;18.83;5.00;;;;;;;11.34;50.27;99070.78;3163913;28;20680;-67
2023/04/03 05:24:09;;;;;;;20.85;4.75;;;;;;;11.36;50.00;99075.94;3163580;28;20055;-70
2023/04/03 05:25:41;;;;;;;16.42;5.00;;;;;;;11.41;50.04;99083.44;3156579;28;20054;-68
2023/04/03 05:27:13;;;;;;;14.45;5.28;;;;;;;11.45;50.07;99088.41;3164445;28;20913;-66
2023/04/03 05:28:45;;;;;;;15.13;5.18;;;;;;;11.48;50.11;99085.63;3153741;28;20059;-68
2023/04/03 05:30:18;;;;;;;17.80;5.38;;;;;;;11.42;50.06;99070.34;3161915;28;20100;-69
2023/04/03 05:31:50;;;;;;;21.52;6.30;;;;;;;11.57;49.75;99089.44;3162679;28;20555;-69
2023/04/03 05:33:22;;;;;;;23.38;5.85;;;;;;;11.60;50.16;99089.25;3164379;28;20052;-65
2023/04/03 05:34:54;;;;;;;14.45;6.07;;;;;;;11.46;49.97;99065.78;3163594;28;20048;-68
2023/04/03 05:36:26;;;;;;;37.50;9.05;;;;;;;11.67;49.94;99089.69;3163269;28;20083;-65
2023/04/03 05:38:00;;;;;;;18.23;6.80;;;;;;;11.69;49.87;99085.25;3163134;28;20559;-66
2023/04/03 05:39:32;;;;;;;22.42;6.93;;;;;;;11.68;49.87;99078.34;3164058;28;20058;-66
2023/04/03 05:41:04;;;;;;;18.50;6.60;;;;;;;11.61;50.11;99070.88;3162458;28;20059;-63
2023/04/03 05:42:36;;;;;;;29.60;7.70;;;;;;;11.77;49.63;99088.19;3161672;28;20457;-67
2023/04/03 05:44:09;;;;;;;23.02;6.72;;;;;;;11.78;49.70;99087.28;3157793;28;20055;-67
2023/04/03 05:45:40;;;;;;;19.65;7.28;;;;;;;11.77;49.68;99093.41;3164011;28;20134;-65
2023/04/03 05:47:12;;;;;;;17.65;7.60;;;;;;;11.78;49.87;99089.91;3164273;28;20052;-67
2023/04/03 05:48:45;;;;;;;21.10;6.95;;;;;;;11.81;49.56;99094.91;3163859;28;20048;-67
2023/04/03 05:50:17;;;;;;;17.92;6.95;;;;;;;11.84;49.49;99106.00;3164607;28;20048;-65
2023/04/03 05:51:51;;;;;;;30.90;7.07;;;;;;;11.91;49.27;99096.03;3162655;28;20411;-66
2023/04/03 05:53:28;;;;;;;22.23;7.72;;;;;;;11.91;49.52;99088.22;3163537;28;20047;-63
2023/04/03 05:55:00;;;;;;;20.42;7.72;;;;;;;11.96;49.51;99094.00;3163393;28;20048;-67
2023/04/03 05:56:32;;;;;;;27.27;11.18;;;;;;;12.05;48.98;99101.25;3163593;28;20627;-68
2023/04/03 05:58:04;;;;;;;131.73;62.97;;;;;;;12.12;48.93;99100.88;3160408;28;20516;-70
2023/04/03 05:59:36;;;;;;;88.18;42.80;;;;;;;12.16;49.09;99095.38;3158531;28;20406;-68
2023/04/03 06:01:08;;;;;;;20.30;9.65;;;;;;;12.20;48.86;99096.84;3166109;28;20052;-66
2023/04/03 06:02:39;;;;;;;22.20;7.57;;;;;;;12.28;48.60;99097.19;3166824;28;20044;-66
2023/04/03 06:04:12;;;;;;;24.23;7.68;;;;;;;12.34;48.47;99098.59;3166377;28;20089;-66
2023/04/03 06:05:46;;;;;;;32.25;8.60;;;;;;;12.35;48.24;99088.97;3166538;28;20800;-68
2023/04/03 06:07:21;;;;;;;20.58;8.15;;;;;;;12.39;48.24;99101.72;3165837;28;20247;-65
2023/04/03 06:08:54;;;;;;;26.83;8.02;;;;;;;12.41;48.36;99099.88;3166445;28;20051;-62
2023/04/03 06:10:26;;;;;;;;;;;;;;;12.37;48.34;99098.41;3169488;28;20131;-64
2023/04/03 06:11:58;;;;;;;15.30;6.18;;;;;;;12.39;48.08;99099.13;3170779;28;19924;-62
2023/04/03 06:13:30;;;;;;;20.30;6.00;;;;;;;12.37;48.03;99087.13;3164544;28;20445;-66
2023/04/03 06:15:02;;;;;;;14.10;6.05;;;;;;;12.53;47.77;99104.28;3170354;28;20055;-63
2023/04/03 06:16:34;;;;;;;12.18;4.40;;;;;;;12.58;47.51;99111.84;3170452;28;20047;-68
2023/04/03 06:18:06;;;;;;;11.13;2.92;;;;;;;12.61;47.19;99113.44;3170789;28;20048;-67
2023/04/03 06:19:38;;;;;;;8.23;3.72;;;;;;;12.52;47.16;99100.03;3171101;28;20052;-65
2023/04/03 06:21:10;;;;;;;16.00;3.70;;;;;;;12.66;46.67;99112.19;3169656;28;20059;-64
2023/04/03 06:22:42;;;;;;;7.65;3.10;;;;;;;12.58;46.41;99092.72;3171421;28;20047;-63
2023/04/03 06:24:17;;;;;;;10.20;2.92;;;;;;;12.74;46.61;99106.47;3171012;28;20139;-66
2023/04/03 06:25:49;;;;;;;8.95;2.83;;;;;;;12.78;46.43;99107.09;3171275;28;20069;-65
2023/04/03 06:27:21;;;;;;;7.68;2.55;;;;;;;12.79;46.01;99109.63;3170453;28;20047;-66
2023/04/03 06:28:52;;;;;;;9.93;3.13;;;;;;;12.82;45.90;99104.19;3161550;28;20065;-67
2023/04/03 06:30:25;;;;;;;10.15;2.95;;;;;;;12.86;45.79;99102.22;3162850;28;20516;-66
2023/04/03 06:31:57;;;;;;;11.43;2.70;;;;;;;12.86;45.70;99089.97;3171155;28;20085;-68
2023/04/03 06:33:29;;;;;;;7.60;2.75;;;;;;;12.90;45.69;99096.69;3170656;28;20333;-64
2023/04/03 06:35:01;;;;;;;15.20;3.10;;;;;;;12.93;45.91;99096.50;3171077;28;20096;-66
2023/04/03 06:36:33;;;;;;;7.15;2.58;;;;;;;12.96;45.54;99101.50;3170765;28;20131;-68
2023/04/03 06:38:09;;;;;;;10.35;2.75;;;;;;;12.98;45.31;99097.03;3170805;28;20050;-67
2023/04/03 06:39:42;;;;;;;14.20;3.42;;;;;;;13.01;45.44;99092.53;3169992;28;20054;-67
2023/04/03 06:41:14;;;;;;;8.13;3.20;;;;;;;13.00;45.45;99096.09;3170016;28;20048;-63
2023/04/03 06:42:46;;;;;;;14.05;3.55;;;;;;;12.75;45.62;99050.69;3168706;28;20051;-65
2023/04/03 06:44:18;;;;;;;9.60;3.03;;;;;;;13.11;45.18;99104.06;3162498;28;20078;-61
2023/04/03 06:45:49;;;;;;;15.38;3.75;;;;;;;13.15;45.36;99113.34;3171416;28;20071;-64
2023/04/03 06:47:21;;;;;;;10.88;3.10;;;;;;;13.26;44.99;99128.38;3171506;28;20059;-73
2023/04/03 06:48:54;;;;;;;13.68;3.30;;;;;;;13.33;44.81;99132.22;3171063;28;20105;-69
2023/04/03 06:50:26;;;;;;;6.85;2.67;;;;;;;13.38;44.90;99133.59;3171309;28;20121;-71
2023/04/03 06:51:59;;;;;;;6.10;2.40;;;;;;;13.08;44.48;99075.50;3170333;28;20051;-67
2023/04/03 06:53:31;;;;;;;8.88;2.78;;;;;;;13.45;44.21;99120.09;3170871;28;20046;-69
2023/04/03 06:55:04;;;;;;;5.85;2.85;;;;;;;13.46;44.57;99117.41;3170456;28;20056;-67
2023/04/03 06:56:36;;;;;;;7.60;2.53;;;;;;;13.50;44.47;99123.25;3170120;28;20055;-73
2023/04/03 06:58:09;;;;;;;9.55;3.80;;;;;;;13.18;44.38;99071.31;3165601;28;20048;-68
2023/04/03 06:59:41;;;;;;;13.50;3.70;;;;;;;13.55;44.29;99129.03;3167016;28;20039;-65
2023/04/03 07:01:16;;;;;;;8.70;3.25;;;;;;;13.63;44.56;99122.28;3170189;28;20385;-67
2023/04/03 07:02:48;;;;;;;13.00;3.97;;;;;;;13.73;44.14;99114.66;3171179;28;20077;-69
2023/04/03 07:04:20;;;;;;;17.10;3.75;;;;;;;13.55;44.18;99071.47;3171285;28;20119;-66
2023/04/03 07:05:52;;;;;;;9.95;3.40;;;;;;;13.94;43.79;99127.22;3170386;28;20055;-67
2023/04/03 07:07:24;;;;;;;7.50;3.22;;;;;;;14.02;43.74;99123.13;3168884;28;20097;-67
2023/04/03 07:08:56;;;;;;;13.23;4.25;;;;;;;14.11;43.57;99127.72;3169851;28;20039;-68
2023/04/03 07:10:30;;;;;;;7.20;2.77;;;;;;;14.22;43.32;99115.63;3170921;28;20056;-71
2023/04/03 07:12:02;;;;;;;12.07;2.55;;;;;;;14.33;43.46;99127.00;3170139;28;20313;-69
2023/04/03 07:13:34;;;;;;;4.97;2.38;;;;;;;14.41;43.17;99123.03;3161589;28;20044;-73
2023/04/03 07:15:08;;;;;;;3.53;1.80;;;;;;;14.30;43.23;99111.50;3169692;28;20054;-72